Time;durP1;ratioP1;P1;durP2;ratioP2;P2;SDS_P1;SDS_P2;PMS_P1;PMS_P2;Temp;Humidity;BMP_temperature;BMP_pressure;BME280_temperature;BME280_humidity;BME280_pressure;Samples;Min_cycle;Max_cycle;Signal;HPM_P1;HPM_P2
2021/12/22 00:02:09;;;;;;;47.93;21.03;;;;;;;-2.22;75.04;99737.64;2189867;81;20958;-82
2021/12/22 00:05:09;;;;;;;49.03;21.17;;;;;;;-2.22;74.98;99733.81;2189930;81;21020;-82
2021/12/22 00:08:10;;;;;;;44.67;19.70;;;;;;;-2.22;75.06;99735.98;2190212;81;20920;-82
2021/12/22 00:11:10;;;;;;;46.00;19.60;;;;;;;-2.16;75.09;99730.44;2190207;81;20972;-80
2021/12/22 00:14:11;;;;;;;39.53;18.97;;;;;;;-2.15;75.05;99732.22;2190061;81;20980;-80
2021/12/22 00:17:11;;;;;;;42.93;19.70;;;;;;;-2.13;75.23;99734.11;2189178;81;20951;-80
2021/12/22 00:20:12;;;;;;;41.30;20.20;;;;;;;-2.04;75.21;99737.36;2189505;81;21007;-79
2021/12/22 00:23:13;;;;;;;41.67;20.17;;;;;;;-1.98;74.99;99734.37;2189768;81;20987;-80
2021/12/22 00:26:15;;;;;;;45.07;21.00;;;;;;;-1.97;74.96;99738.33;2189604;81;20971;-79
2021/12/22 00:29:17;;;;;;;47.30;19.97;;;;;;;-1.93;75.05;99738.16;2189729;81;20983;-79
2021/12/22 00:32:17;;;;;;;46.83;20.67;;;;;;;-1.89;74.96;99744.02;2189463;81;21370;-81
2021/12/22 00:35:20;;;;;;;48.90;21.40;;;;;;;-1.85;74.89;99741.30;2189679;81;21379;-79
2021/12/22 00:38:20;;;;;;;49.30;23.90;;;;;;;-1.81;74.94;99740.75;2190759;81;20979;-82
2021/12/22 00:41:21;;;;;;;50.47;23.47;;;;;;;-1.82;74.83;99746.64;2190076;81;20955;-79
2021/12/22 00:44:23;;;;;;;49.97;23.93;;;;;;;-1.80;74.92;99747.26;2189924;81;21019;-79
2021/12/22 00:47:23;;;;;;;52.83;24.20;;;;;;;-1.82;74.80;99753.04;2189775;81;21027;-79
2021/12/22 00:50:23;;;;;;;56.20;25.43;;;;;;;-1.80;75.03;99752.38;2189734;81;20936;-81
2021/12/22 00:53:24;;;;;;;51.60;24.37;;;;;;;-1.82;75.01;99756.87;2189759;81;20929;-81
2021/12/22 00:56:24;;;;;;;57.40;23.13;;;;;;;-1.88;74.80;99745.80;2189696;81;20960;-82
2021/12/22 00:59:25;;;;;;;56.33;24.40;;;;;;;-1.95;74.99;99755.07;2189657;81;20952;-81
2021/12/22 01:02:25;;;;;;;57.23;26.13;;;;;;;-2.01;75.02;99758.06;2189931;81;20987;-81
2021/12/22 01:05:26;;;;;;;53.10;25.50;;;;;;;-2.00;75.17;99752.55;2172796;81;21027;-81
2021/12/22 01:08:26;;;;;;;46.73;21.83;;;;;;;-2.00;75.34;99752.17;2172808;81;20980;-81
2021/12/22 01:11:27;;;;;;;53.47;23.23;;;;;;;-1.99;75.16;99753.95;2172203;81;21667;-81
2021/12/22 01:14:27;;;;;;;57.20;25.37;;;;;;;-2.03;75.27;99758.33;2172544;81;21009;-81
2021/12/22 01:17:36;;;;;;;51.97;24.80;;;;;;;-2.08;75.26;99756.20;2172855;81;20948;-81
2021/12/22 01:20:36;;;;;;;66.10;27.27;;;;;;;-2.12;75.45;99756.75;2172702;81;21341;-81
2021/12/22 01:23:39;;;;;;;62.40;28.73;;;;;;;-2.11;75.45;99750.86;2172605;81;21340;-81
2021/12/22 01:26:40;;;;;;;62.57;27.83;;;;;;;-2.18;75.48;99758.45;2172685;81;21375;-81
2021/12/22 01:29:38;;;;;;;53.93;25.40;;;;;;;-2.20;75.71;99756.17;2172836;81;21003;-81
2021/12/22 01:32:38;;;;;;;58.57;23.77;;;;;;;-2.22;75.80;99755.55;2172421;81;20989;-81
2021/12/22 01:35:39;;;;;;;49.63;21.13;;;;;;;-2.21;76.01;99758.22;2173073;81;20937;-81
2021/12/22 01:38:39;;;;;;;44.47;20.27;;;;;;;-2.21;75.82;99763.73;2173001;81;20945;-81
2021/12/22 01:41:40;;;;;;;42.90;19.73;;;;;;;-2.26;75.90;99756.59;2172353;81;20937;-80
2021/12/22 01:45:00;;;;;;;39.90;19.17;;;;;;;-2.25;76.00;99761.33;2172609;81;20993;-83
2021/12/22 01:51:07;;;;;;;44.27;18.77;;;;;;;-2.31;76.09;99762.13;2173258;82;20941;-83
2021/12/22 01:54:08;;;;;;;54.63;21.27;;;;;;;-2.33;76.29;99767.52;2173240;81;20961;-81
2021/12/22 01:57:12;;;;;;;52.07;21.63;;;;;;;-2.34;76.28;99765.34;2173412;81;20980;-78
2021/12/22 02:00:10;;;;;;;44.37;19.37;;;;;;;-2.34;76.30;99764.07;2172964;81;21326;-81
2021/12/22 02:03:11;;;;;;;47.93;19.77;;;;;;;-2.37;76.35;99761.28;2175208;81;21027;-80
2021/12/22 02:06:11;;;;;;;43.03;20.03;;;;;;;-2.32;76.47;99770.58;2189887;81;20964;-83
2021/12/22 02:09:17;;;;;;;42.97;20.37;;;;;;;-2.34;76.49;99774.69;2189413;81;20972;-81
2021/12/22 02:12:14;;;;;;;48.87;20.80;;;;;;;-2.29;76.57;99774.65;2188604;81;21380;-78
2021/12/22 02:15:15;;;;;;;43.97;19.40;;;;;;;-2.28;76.69;99771.31;2189877;81;20932;-81
2021/12/22 02:18:19;;;;;;;50.13;21.33;;;;;;;-2.23;76.84;99771.67;2189962;81;20952;-80
2021/12/22 02:21:19;;;;;;;41.37;19.80;;;;;;;-2.20;76.80;99766.78;2189883;81;21012;-81
2021/12/22 02:24:19;;;;;;;41.80;19.97;;;;;;;-2.21;76.84;99777.41;2189866;81;21079;-82
2021/12/22 02:27:27;;;;;;;41.13;19.33;;;;;;;-2.17;76.90;99776.86;2189879;81;20960;-80
2021/12/22 02:30:28;;;;;;;45.83;20.30;;;;;;;-2.17;76.79;99773.41;2189366;81;21027;-81
2021/12/22 02:33:39;;;;;;;40.90;19.60;;;;;;;-2.21;76.97;99781.63;2189619;81;20995;-80
2021/12/22 02:36:37;;;;;;;39.73;19.10;;;;;;;-2.21;77.02;99786.36;2188557;81;21411;-81
2021/12/22 02:39:32;;;;;;;36.03;18.30;;;;;;;-2.22;77.06;99789.69;2188669;81;21039;-82
2021/12/22 02:42:34;;;;;;;44.83;21.20;;;;;;;-2.21;77.14;99785.47;2189643;81;21403;-81
2021/12/22 02:45:34;;;;;;;40.23;19.53;;;;;;;-2.26;77.07;99788.56;2189646;81;20996;-83
2021/12/22 02:48:35;;;;;;;41.03;20.73;;;;;;;-2.33;77.15;99787.59;2189613;81;20972;-81
2021/12/22 02:51:36;;;;;;;42.13;19.87;;;;;;;-2.36;77.23;99781.34;2189531;81;20968;-80
2021/12/22 02:54:43;;;;;;;42.47;21.50;;;;;;;-2.40;77.22;99788.28;2189786;81;21012;-81
2021/12/22 02:57:44;;;;;;;39.53;20.90;;;;;;;-2.47;77.37;99788.19;2188978;81;21055;-81
2021/12/22 03:01:05;;;;;;;45.90;22.53;;;;;;;-2.47;77.49;99786.02;2189401;81;21047;-82
2021/12/22 03:03:58;;;;;;;53.77;22.90;;;;;;;-2.45;77.67;99784.09;2186803;81;20972;-81
2021/12/22 03:07:02;;;;;;;43.77;20.93;;;;;;;-2.43;77.69;99784.20;2188831;81;20964;-81
2021/12/22 03:10:00;;;;;;;48.47;22.63;;;;;;;-2.50;77.70;99790.51;2189102;81;21004;-81
2021/12/22 03:13:04;;;;;;;49.60;22.87;;;;;;;-2.49;78.09;99788.84;2188898;81;20944;-79
2021/12/22 03:16:03;;;;;;;68.57;27.63;;;;;;;-2.50;77.89;99789.62;2189761;81;21400;-79
2021/12/22 03:19:04;;;;;;;71.93;31.47;;;;;;;-2.53;77.91;99789.38;2190196;81;20948;-82
2021/12/22 03:22:07;;;;;;;62.20;27.20;;;;;;;-2.54;77.95;99791.43;2189448;81;21003;-81
2021/12/22 03:25:14;;;;;;;57.70;25.20;;;;;;;-2.55;78.08;99790.54;2189438;81;20996;-81
2021/12/22 03:28:09;;;;;;;63.67;26.80;;;;;;;-2.59;78.01;99795.80;2189205;81;21000;-82
2021/12/22 03:31:10;;;;;;;63.37;26.33;;;;;;;-2.61;78.19;99794.75;2190256;81;20971;-81
2021/12/22 03:34:13;;;;;;;57.27;24.60;;;;;;;-2.64;78.34;99802.56;2172916;81;21379;-82
2021/12/22 03:37:14;;;;;;;56.53;23.50;;;;;;;-2.76;78.07;99798.66;2189932;81;20992;-82
2021/12/22 03:40:14;;;;;;;41.13;21.40;;;;;;;-2.89;78.00;99807.02;2189261;81;20948;-82
2021/12/22 03:43:14;;;;;;;44.70;21.40;;;;;;;-3.02;77.63;99805.55;2189987;81;21047;-82
2021/12/22 03:46:15;;;;;;;47.03;21.40;;;;;;;-3.19;77.92;99803.69;2189220;81;20990;-82
2021/12/22 03:49:15;;;;;;;48.47;21.80;;;;;;;-3.28;78.15;99810.22;2190177;81;21402;-81
2021/12/22 03:52:16;;;;;;;44.27;20.67;;;;;;;-3.36;78.49;99820.19;2191272;81;20972;-82
2021/12/22 03:55:16;;;;;;;39.53;20.37;;;;;;;-3.49;78.33;99814.44;2191290;81;21001;-82
2021/12/22 03:58:17;;;;;;;44.77;20.37;;;;;;;-3.59;78.44;99815.73;2190136;81;20976;-81
2021/12/22 04:01:18;;;;;;;52.33;22.57;;;;;;;-3.66;78.51;99814.72;2190403;81;21003;-81
2021/12/22 04:04:19;;;;;;;55.70;22.53;;;;;;;-3.74;78.66;99817.02;2182952;81;21015;-81
2021/12/22 04:07:19;;;;;;;68.87;25.37;;;;;;;-3.79;78.75;99822.12;2171621;82;21317;-79
2021/12/22 04:10:21;;;;;;;75.43;26.07;;;;;;;-3.83;78.73;99818.80;2172324;82;21000;-81
2021/12/22 04:13:22;;;;;;;81.93;28.70;;;;;;;-3.92;78.53;99817.28;2173486;81;21306;-81
2021/12/22 04:16:22;;;;;;;83.60;27.93;;;;;;;-3.96;78.69;99819.06;2172755;81;20980;-81
2021/12/22 04:19:23;;;;;;;73.23;26.43;;;;;;;-3.99;78.77;99822.62;2172998;81;21376;-81
2021/12/22 04:22:23;;;;;;;64.87;25.00;;;;;;;-4.00;78.89;99824.67;2173204;81;21321;-81
2021/12/22 04:25:24;;;;;;;66.50;28.90;;;;;;;-4.01;78.80;99834.36;2173373;81;21004;-82
2021/12/22 04:28:24;;;;;;;70.77;25.40;;;;;;;-4.03;78.66;99835.00;2172997;81;20940;-84
2021/12/22 04:31:25;;;;;;;62.40;24.00;;;;;;;-4.05;78.44;99836.14;2172619;82;20952;-81
2021/12/22 04:34:25;;;;;;;55.87;23.43;;;;;;;-4.10;78.21;99834.86;2172503;81;21033;-81
2021/12/22 04:37:26;;;;;;;51.03;23.57;;;;;;;-4.14;78.24;99831.54;2172713;81;20976;-82
2021/12/22 04:40:26;;;;;;;74.00;36.00;;;;;;;-4.17;77.82;99831.28;2172857;81;21000;-81
2021/12/22 04:43:28;;;;;;;59.20;30.33;;;;;;;-4.26;77.69;99838.16;2172693;81;21000;-81
2021/12/22 04:46:28;;;;;;;46.73;21.90;;;;;;;-4.36;77.61;99838.98;2172754;82;21040;-81
2021/12/22 04:49:29;;;;;;;46.67;20.63;;;;;;;-4.42;77.66;99837.57;2172350;81;21333;-80
2021/12/22 04:52:39;;;;;;;44.03;20.03;;;;;;;-4.49;77.39;99842.14;2172381;81;21333;-81
2021/12/22 04:55:31;;;;;;;43.57;20.97;;;;;;;-4.57;77.23;99841.86;2170996;81;21309;-81
2021/12/22 04:58:32;;;;;;;43.03;19.90;;;;;;;-4.66;77.26;99840.17;2171040;81;20968;-82
2021/12/22 05:01:32;;;;;;;42.03;19.87;;;;;;;-4.72;77.34;99841.81;2171088;81;20988;-82
2021/12/22 05:04:33;;;;;;;39.20;19.73;;;;;;;-4.81;76.88;99842.28;2170925;81;21389;-81
2021/12/22 05:07:33;;;;;;;41.97;19.57;;;;;;;-4.96;76.73;99851.13;2171818;81;21360;-82
2021/12/22 05:10:34;;;;;;;47.37;22.03;;;;;;;-5.09;76.72;99854.63;2172439;81;20976;-82
2021/12/22 05:13:36;;;;;;;50.40;23.53;;;;;;;-5.18;76.66;99855.60;2172979;81;20992;-82
2021/12/22 05:16:44;;;;;;;43.40;21.47;;;;;;;-5.18;77.01;99852.16;2171877;81;20968;-82
2021/12/22 05:19:38;;;;;;;43.80;21.43;;;;;;;-5.15;77.07;99850.78;2170794;81;20976;-82
2021/12/22 05:22:39;;;;;;;53.83;23.80;;;;;;;-5.17;76.74;99851.02;2170807;81;20965;-81
2021/12/22 05:25:39;;;;;;;46.07;21.97;;;;;;;-5.20;76.59;99855.84;2171444;81;20983;-81
2021/12/22 05:28:40;;;;;;;45.03;23.33;;;;;;;-5.28;76.46;99854.23;2171730;81;20941;-82
2021/12/22 05:31:41;;;;;;;61.03;28.07;;;;;;;-5.30;76.53;99859.94;2171374;81;20960;-83
2021/12/22 05:34:41;;;;;;;59.57;28.00;;;;;;;-5.37;76.50;99861.05;2171051;81;20968;-82
2021/12/22 05:37:42;;;;;;;70.30;31.73;;;;;;;-5.42;76.22;99869.92;2171425;81;20948;-81
2021/12/22 05:40:42;;;;;;;86.83;37.07;;;;;;;-5.49;76.26;99865.93;2172214;81;20973;-81
2021/12/22 05:43:43;;;;;;;78.90;33.43;;;;;;;-5.55;76.11;99868.30;2171749;81;20948;-84
2021/12/22 05:46:43;;;;;;;96.47;50.70;;;;;;;-5.59;76.30;99868.78;2170919;81;20924;-82
2021/12/22 05:49:44;;;;;;;82.80;43.13;;;;;;;-5.66;76.45;99865.16;2170895;82;21305;-82
2021/12/22 05:52:44;;;;;;;76.53;35.20;;;;;;;-5.66;76.86;99870.25;2171704;81;21346;-82
2021/12/22 05:55:45;;;;;;;62.03;30.33;;;;;;;-5.70;76.72;99875.44;2171629;81;21353;-83
2021/12/22 05:58:45;;;;;;;53.77;28.23;;;;;;;-5.71;77.04;99877.46;2170481;81;20941;-80
2021/12/22 06:01:46;;;;;;;51.93;24.20;;;;;;;-5.68;76.85;99878.11;2170566;81;20937;-79
2021/12/22 06:04:47;;;;;;;58.57;25.60;;;;;;;-5.68;76.64;99881.93;2176565;81;21008;-78
2021/12/22 06:07:47;;;;;;;64.53;31.60;;;;;;;-5.67;76.76;99887.53;2187233;81;20995;-78
2021/12/22 06:10:48;;;;;;;68.50;30.90;;;;;;;-5.66;77.21;99889.33;2186255;81;20975;-78
2021/12/22 06:17:26;;;;;;;70.53;32.37;;;;;;;-5.59;77.72;99902.73;2186691;81;20975;-80
2021/12/22 06:20:26;;;;;;;58.67;27.93;;;;;;;-5.57;77.61;99920.69;2186214;81;21439;-79
2021/12/22 06:23:27;;;;;;;65.50;30.93;;;;;;;-5.61;77.00;99922.05;2186174;81;20988;-79
2021/12/22 06:26:27;;;;;;;64.33;29.03;;;;;;;-5.64;76.97;99924.32;2185828;81;21368;-79
2021/12/22 06:29:28;;;;;;;70.53;32.47;;;;;;;-5.62;76.72;99928.27;2186511;81;20995;-79
2021/12/22 06:32:30;;;;;;;68.77;30.40;;;;;;;-5.53;77.01;99935.09;2187095;81;21400;-80
2021/12/22 06:35:30;;;;;;;64.03;30.20;;;;;;;-5.48;76.49;99934.25;2186721;81;21007;-80
2021/12/22 06:38:31;;;;;;;65.10;31.93;;;;;;;-5.49;76.38;99939.71;2187080;81;20940;-79
2021/12/22 06:41:31;;;;;;;85.97;34.80;;;;;;;-5.51;76.12;99944.14;2186798;81;21004;-79
2021/12/22 06:44:32;;;;;;;75.77;34.60;;;;;;;-5.51;76.20;99942.88;2187263;81;20999;-79
2021/12/22 06:47:32;;;;;;;83.70;38.70;;;;;;;-5.54;75.71;99950.22;2188192;81;20913;-79
2021/12/22 06:50:33;;;;;;;85.77;41.07;;;;;;;-5.58;75.46;99951.97;2188561;81;20951;-79
2021/12/22 06:53:36;;;;;;;99.10;45.00;;;;;;;-5.64;75.18;99954.84;2188666;81;21007;-78
2021/12/22 06:56:38;;;;;;;114.97;53.10;;;;;;;-5.67;75.35;99955.83;2187582;81;21030;-79
2021/12/22 06:59:38;;;;;;;116.87;52.70;;;;;;;-5.66;75.62;99963.09;2187628;81;21352;-80
2021/12/22 07:02:39;;;;;;;130.37;49.83;;;;;;;-5.61;75.53;99964.03;2187310;81;21007;-79
2021/12/22 07:05:39;;;;;;;109.40;45.23;;;;;;;-5.60;75.87;99972.17;2187081;81;21003;-78
2021/12/22 07:08:40;;;;;;;128.80;50.20;;;;;;;-5.59;75.72;99971.42;2186262;81;20956;-78
2021/12/22 07:11:43;;;;;;;124.37;51.17;;;;;;;-5.56;75.76;99970.44;2186209;81;20913;-79
2021/12/22 07:14:43;;;;;;;132.97;53.53;;;;;;;-5.51;76.01;99973.02;2186718;81;20920;-79
2021/12/22 07:17:43;;;;;;;120.10;49.83;;;;;;;-5.46;75.94;99979.43;2187009;81;20991;-80
2021/12/22 07:20:44;;;;;;;125.80;53.93;;;;;;;-5.41;76.12;99981.13;2186859;81;20964;-79
2021/12/22 07:23:45;;;;;;;142.27;56.60;;;;;;;-5.39;76.36;99978.34;2188015;81;21407;-79
2021/12/22 07:26:45;;;;;;;119.27;50.73;;;;;;;-5.32;76.40;99989.59;2188142;81;20979;-79
2021/12/22 07:29:45;;;;;;;123.70;52.80;;;;;;;-5.23;75.84;99986.63;2187840;81;20996;-79
2021/12/22 07:32:46;;;;;;;150.33;63.70;;;;;;;-5.19;75.80;99982.36;2187246;81;20944;-80
2021/12/22 07:35:46;;;;;;;132.10;59.63;;;;;;;-5.15;75.75;99984.80;2187279;81;21051;-78
2021/12/22 07:38:47;;;;;;;138.43;62.10;;;;;;;-5.09;75.71;99989.56;2187183;81;20979;-79
2021/12/22 07:41:47;;;;;;;141.13;60.23;;;;;;;-5.07;75.63;99991.87;2187512;81;21321;-80
2021/12/22 07:44:48;;;;;;;123.43;54.50;;;;;;;-5.01;75.54;99993.70;2187761;81;21398;-79
2021/12/22 07:47:48;;;;;;;135.73;58.13;;;;;;;-4.99;75.22;99998.17;2187813;81;20936;-79
2021/12/22 07:50:49;;;;;;;146.17;63.07;;;;;;;-4.96;75.26;100002.27;2187015;81;20944;-79
2021/12/22 07:53:49;;;;;;;162.43;67.10;;;;;;;-4.92;75.33;100002.16;2186642;81;20920;-79
2021/12/22 07:56:50;;;;;;;158.43;68.63;;;;;;;-4.85;75.65;100005.40;2186771;81;21380;-79
2021/12/22 07:59:50;;;;;;;176.37;76.60;;;;;;;-4.75;75.63;100003.67;2186334;81;20979;-79
2021/12/22 08:02:51;;;;;;;157.60;70.27;;;;;;;-4.58;76.05;100001.88;2187680;81;21015;-79
2021/12/22 08:05:51;;;;;;;158.17;72.07;;;;;;;-4.44;75.72;100009.84;2178976;81;20996;-81
2021/12/22 08:08:52;;;;;;;182.90;79.87;;;;;;;-4.32;75.37;100016.06;2170493;81;21024;-79
2021/12/22 08:11:53;;;;;;;177.47;76.03;;;;;;;-4.31;75.33;100005.11;2171038;81;20945;-79
2021/12/22 08:14:53;;;;;;;162.00;71.67;;;;;;;-4.26;75.53;100004.75;2170656;81;20953;-80
2021/12/22 08:17:54;;;;;;;135.40;60.47;;;;;;;-4.15;75.46;100001.86;2170832;81;20984;-78
2021/12/22 08:20:55;;;;;;;132.03;57.87;;;;;;;-4.06;75.68;100005.22;2170223;81;20952;-77
2021/12/22 08:23:55;;;;;;;112.60;53.60;;;;;;;-3.94;75.65;100010.48;2170082;81;21385;-77
2021/12/22 08:26:56;;;;;;;121.13;55.27;;;;;;;-3.87;75.74;100008.59;2170116;81;21353;-77
2021/12/22 08:29:56;;;;;;;106.73;50.87;;;;;;;-3.85;75.79;100009.63;2170300;81;20961;-79
2021/12/22 08:32:59;;;;;;;108.67;48.87;;;;;;;-3.78;75.93;100013.98;2170774;81;20937;-78
2021/12/22 08:39:18;;;;;;;83.43;40.77;;;;;;;-3.50;76.02;100010.47;2170761;82;21337;-79
2021/12/22 08:42:18;;;;;;;82.37;41.50;;;;;;;-3.37;75.95;100018.81;2171248;81;21012;-79
2021/12/22 08:45:19;;;;;;;88.33;39.67;;;;;;;-3.25;75.89;100009.25;2171792;81;21388;-79
2021/12/22 08:48:19;;;;;;;70.77;37.20;;;;;;;-3.08;75.83;100012.33;2172071;81;20964;-79
2021/12/22 08:51:21;;;;;;;80.17;39.37;;;;;;;-2.91;75.72;100006.95;2171321;81;20949;-77
2021/12/22 08:54:21;;;;;;;56.53;30.10;;;;;;;-2.68;75.63;100011.02;2170803;81;21039;-76
2021/12/22 08:57:22;;;;;;;66.50;33.63;;;;;;;-2.46;74.82;100014.97;2171133;81;20992;-77
2021/12/22 09:00:22;;;;;;;75.27;34.97;;;;;;;-2.27;75.01;100014.40;2170873;81;20948;-79
2021/12/22 09:03:23;;;;;;;58.17;30.23;;;;;;;-2.00;74.85;100012.25;2170854;81;20988;-77
2021/12/22 09:06:24;;;;;;;49.63;26.37;;;;;;;-1.86;73.94;100018.08;2170152;81;21395;-76
2021/12/22 09:09:24;;;;;;;44.00;24.73;;;;;;;-1.83;73.47;100019.98;2169633;81;20988;-76
2021/12/22 09:12:27;;;;;;;47.97;24.13;;;;;;;-1.81;73.41;100025.73;2170084;82;20933;-76
2021/12/22 09:15:27;;;;;;;48.23;23.57;;;;;;;-1.79;73.43;100023.30;2170434;81;20933;-76
2021/12/22 09:18:28;;;;;;;47.60;23.80;;;;;;;-1.80;73.18;100015.11;2171012;82;20984;-76
2021/12/22 09:21:28;;;;;;;46.87;26.47;;;;;;;-1.77;73.64;100019.19;2171499;81;21008;-78
2021/12/22 09:24:30;;;;;;;57.50;26.33;;;;;;;-1.72;73.30;100019.19;2171883;81;21384;-76
2021/12/22 09:27:30;;;;;;;63.70;28.87;;;;;;;-1.75;73.09;100018.53;2171932;81;21007;-79
2021/12/22 09:30:35;;;;;;;66.47;30.53;;;;;;;-1.72;73.00;100019.19;2171288;81;21353;-76
2021/12/22 09:33:33;;;;;;;91.03;37.07;;;;;;;-1.80;72.71;100021.12;2170813;81;21405;-77
2021/12/22 09:36:34;;;;;;;74.60;29.77;;;;;;;-1.81;72.97;100015.88;2170234;81;21035;-77
2021/12/22 09:39:34;;;;;;;64.83;28.57;;;;;;;-1.66;73.03;100016.73;2169569;81;20941;-77
2021/12/22 09:42:34;;;;;;;50.33;23.57;;;;;;;-1.48;73.04;100013.42;2170603;81;21051;-75
2021/12/22 09:45:40;;;;;;;54.93;23.23;;;;;;;-1.42;72.35;100017.73;2170134;81;21333;-76
2021/12/22 09:55:02;;;;;;;39.87;19.20;;;;;;;-1.40;71.02;100016.19;2170826;82;21380;-78
2021/12/22 09:58:02;;;;;;;40.13;19.07;;;;;;;-1.50;70.30;100013.69;2169887;82;20945;-78
2021/12/22 10:01:03;;;;;;;34.37;17.90;;;;;;;-1.51;71.06;100004.22;2170442;81;20999;-78
2021/12/22 10:04:03;;;;;;;27.33;16.57;;;;;;;-1.47;70.79;100006.63;2170566;81;20980;-79
2021/12/22 10:07:04;;;;;;;32.33;15.83;;;;;;;-1.41;70.23;100011.84;2183086;81;21003;-79
2021/12/22 10:10:05;;;;;;;34.13;18.50;;;;;;;-1.37;70.42;100007.45;2187182;81;21360;-78
2021/12/22 10:13:06;;;;;;;35.73;18.47;;;;;;;-1.30;70.48;99993.45;2187196;81;21388;-78
2021/12/22 10:16:06;;;;;;;35.47;18.57;;;;;;;-1.03;70.41;99998.48;2187629;81;21324;-76
2021/12/22 10:19:07;;;;;;;36.43;18.60;;;;;;;-0.97;69.27;99998.95;2187870;81;21388;-76
2021/12/22 10:22:07;;;;;;;39.70;20.13;;;;;;;-0.97;68.70;99988.31;2188151;81;21360;-76
2021/12/22 10:25:09;;;;;;;31.97;16.10;;;;;;;-0.94;68.16;99990.20;2188437;81;20967;-76
2021/12/22 10:28:17;;;;;;;31.40;15.87;;;;;;;-0.88;67.91;99991.06;2187624;81;21336;-79
2021/12/22 10:31:12;;;;;;;28.30;14.40;;;;;;;-0.92;67.86;99983.91;2186790;81;21403;-78
2021/12/22 10:34:13;;;;;;;22.27;12.47;;;;;;;-0.83;68.22;99988.09;2188514;81;21015;-76
2021/12/22 10:37:13;;;;;;;28.43;14.70;;;;;;;-0.88;66.99;99989.38;2187771;81;20991;-76
2021/12/22 10:40:14;;;;;;;29.47;14.67;;;;;;;-0.93;66.34;99982.13;2187918;81;20948;-77
2021/12/22 10:43:14;;;;;;;37.50;16.80;;;;;;;-0.88;67.99;99986.82;2187751;81;21399;-76
2021/12/22 10:46:15;;;;;;;28.03;15.00;;;;;;;-0.71;68.48;99989.39;2187254;81;21485;-76
2021/12/22 10:49:19;;;;;;;27.63;15.13;;;;;;;-0.54;68.18;99989.34;2186729;81;20940;-76
2021/12/22 10:52:19;;;;;;;30.57;15.53;;;;;;;-0.49;65.50;99992.75;2187124;81;20980;-79
2021/12/22 10:55:20;;;;;;;27.97;14.57;;;;;;;-0.58;67.01;99985.67;2187121;81;20980;-79
2021/12/22 10:58:20;;;;;;;31.13;15.37;;;;;;;-0.51;66.25;99985.72;2187529;81;21647;-80
2021/12/22 11:01:21;;;;;;;22.07;12.90;;;;;;;-0.48;66.01;99990.69;2188505;81;21293;-78
2021/12/22 11:04:24;;;;;;;22.90;12.20;;;;;;;-0.56;65.37;99987.95;2188601;81;20959;-77
2021/12/22 11:07:28;;;;;;;21.70;12.20;;;;;;;-0.67;65.42;99984.59;2187867;81;21051;-78
2021/12/22 11:10:26;;;;;;;20.43;10.10;;;;;;;-0.74;65.75;99987.48;2188611;81;21031;-80
2021/12/22 11:13:27;;;;;;;28.63;14.47;;;;;;;-0.78;65.76;99982.91;2188311;81;20988;-77
2021/12/22 11:16:27;;;;;;;27.63;13.13;;;;;;;-0.78;65.57;99984.59;2187624;81;20980;-77
2021/12/22 11:19:28;;;;;;;32.77;14.73;;;;;;;-0.79;65.79;99979.84;2187150;81;20943;-77
2021/12/22 11:22:36;;;;;;;26.70;13.60;;;;;;;-0.76;66.48;99978.80;2187861;81;21023;-77
2021/12/22 11:25:31;;;;;;;24.20;14.63;;;;;;;-0.78;66.33;99980.35;2187346;81;21026;-78
2021/12/22 11:28:34;;;;;;;22.20;13.10;;;;;;;-0.73;66.26;99980.30;2188398;81;21602;-80
2021/12/22 11:31:34;;;;;;;24.27;11.80;;;;;;;-0.75;65.98;99989.94;2188634;81;21034;-76
2021/12/22 11:37:37;;;;;;;22.87;12.63;;;;;;;-0.78;65.88;99982.91;2170364;81;21069;-78
2021/12/22 11:40:37;;;;;;;24.17;11.87;;;;;;;-0.81;64.92;99982.69;2187991;81;21007;-77
2021/12/22 11:46:39;;;;;;;27.60;14.43;;;;;;;-0.88;65.54;99985.54;2187360;81;21338;-77
2021/12/22 11:49:39;;;;;;;31.37;14.23;;;;;;;-0.89;66.14;99981.19;2186871;81;20951;-77
2021/12/22 11:52:43;;;;;;;32.07;15.80;;;;;;;-0.78;65.36;99979.45;2188107;81;21422;-77
2021/12/22 11:55:42;;;;;;;30.33;15.90;;;;;;;-0.85;64.83;99977.22;2186758;81;21371;-78
2021/12/22 11:58:43;;;;;;;25.70;12.83;;;;;;;-0.89;65.59;99970.94;2186749;81;20940;-78
2021/12/22 12:01:44;;;;;;;20.33;12.50;;;;;;;-0.83;64.94;99974.38;2186207;81;20952;-77
2021/12/22 12:04:44;;;;;;;20.70;11.60;;;;;;;-0.81;65.83;99966.02;2187210;81;21015;-78
2021/12/22 12:07:45;;;;;;;25.17;12.50;;;;;;;-0.78;65.76;99967.92;2173449;81;21072;-78
2021/12/22 12:10:46;;;;;;;26.87;12.27;;;;;;;-0.84;64.30;99966.19;2170221;81;21012;-78
2021/12/22 12:23:19;;;;;;;28.03;12.40;;;;;;;-1.07;64.44;99964.44;2171096;82;21384;-77
2021/12/22 12:26:19;;;;;;;30.60;12.70;;;;;;;-1.16;64.06;99962.47;2170789;81;20952;-77
2021/12/22 12:29:20;;;;;;;19.83;10.77;;;;;;;-1.17;64.65;99961.97;2170259;81;20952;-77
2021/12/22 12:32:20;;;;;;;19.77;10.60;;;;;;;-1.18;65.04;99958.90;2170348;82;21019;-78
2021/12/22 12:35:26;;;;;;;21.23;10.73;;;;;;;-1.17;65.30;99954.28;2171361;81;21377;-77
2021/12/22 12:38:30;;;;;;;20.13;11.07;;;;;;;-1.16;65.35;99957.34;2170781;82;21079;-79
2021/12/22 12:41:28;;;;;;;24.83;10.83;;;;;;;-1.03;66.23;99957.48;2169834;81;21003;-77
2021/12/22 12:44:29;;;;;;;17.07;9.50;;;;;;;-1.01;65.50;99946.96;2170639;81;21406;-77
2021/12/22 12:47:29;;;;;;;22.87;10.43;;;;;;;-1.02;64.49;99947.73;2169824;82;20944;-77
2021/12/22 12:50:30;;;;;;;17.27;9.10;;;;;;;-1.11;64.66;99947.05;2170132;81;20937;-77
2021/12/22 12:53:30;;;;;;;16.17;9.23;;;;;;;-1.11;65.73;99950.51;2170633;81;20921;-77
2021/12/22 12:56:31;;;;;;;18.67;10.53;;;;;;;-1.09;65.12;99957.03;2170664;81;20976;-77
2021/12/22 12:59:31;;;;;;;28.70;15.00;;;;;;;-1.20;64.21;99953.66;2170458;81;20957;-77
2021/12/22 13:02:32;;;;;;;24.00;12.13;;;;;;;-1.31;65.16;99960.53;2170449;81;20980;-77
2021/12/22 13:05:32;;;;;;;29.00;13.47;;;;;;;-1.29;65.23;99957.70;2170391;81;20957;-76
2021/12/22 13:08:35;;;;;;;26.47;12.67;;;;;;;-1.30;65.27;99958.48;2168635;81;21028;-81
2021/12/22 13:11:36;;;;;;;25.03;11.73;;;;;;;-1.20;65.95;99954.05;2169131;82;20992;-81
2021/12/22 13:17:55;;;;;;;28.87;13.23;;;;;;;-1.13;65.16;99952.06;2170310;82;21016;-81
2021/12/22 13:20:57;;;;;;;21.70;10.53;;;;;;;-1.09;65.26;99960.48;2169952;81;20928;-80
2021/12/22 13:24:07;;;;;;;25.13;11.57;;;;;;;-1.17;64.79;99960.30;2170490;82;21133;-82
2021/12/22 13:27:08;;;;;;;19.87;10.10;;;;;;;-1.27;65.16;99961.66;2169771;81;21297;-81
2021/12/22 13:30:08;;;;;;;22.37;10.97;;;;;;;-1.35;64.24;99961.08;2169640;81;21285;-81
2021/12/22 13:33:09;;;;;;;23.10;12.13;;;;;;;-1.44;64.77;99961.66;2170049;81;20985;-83
2021/12/22 13:36:12;;;;;;;32.97;14.50;;;;;;;-1.50;65.16;99962.86;2169958;81;21047;-80
2021/12/22 13:39:11;;;;;;;36.83;15.47;;;;;;;-1.62;65.16;99969.22;2170340;81;20995;-79
2021/12/22 13:45:35;;;;;;;27.30;12.87;;;;;;;-1.65;66.14;99974.09;2259729;79;22010;-81
2021/12/22 13:48:36;;;;;;;33.53;13.93;;;;;;;-1.80;65.66;99972.88;2227204;80;20975;-83
2021/12/22 13:51:36;;;;;;;33.80;14.30;;;;;;;-1.89;66.08;99973.05;2226353;80;20972;-81
2021/12/22 13:54:37;;;;;;;37.17;16.87;;;;;;;-1.95;65.95;99977.30;2227290;80;21651;-83
2021/12/22 13:57:38;;;;;;;45.73;18.50;;;;;;;-1.99;66.17;99985.51;2226750;80;21003;-83
2021/12/22 14:00:39;;;;;;;39.20;19.33;;;;;;;-2.03;66.36;99982.59;2226812;80;20964;-83
2021/12/22 14:03:39;;;;;;;55.07;24.07;;;;;;;-2.08;66.33;99987.34;2227077;80;20963;-82
2021/12/22 14:06:40;;;;;;;64.23;26.23;;;;;;;-2.17;66.26;99987.89;2227142;80;20995;-82
2021/12/22 14:09:40;;;;;;;78.27;31.50;;;;;;;-2.26;66.42;99985.50;2227421;80;20964;-81
2021/12/22 14:12:43;;;;;;;59.77;23.77;;;;;;;-2.33;66.60;99987.44;2226816;80;20991;-82
2021/12/22 14:15:43;;;;;;;61.77;23.47;;;;;;;-2.42;66.75;99990.53;2227221;80;21419;-83
2021/12/22 14:18:47;;;;;;;60.83;25.83;;;;;;;-2.52;67.04;99986.73;2226828;80;20915;-79
2021/12/22 14:21:47;;;;;;;47.90;22.37;;;;;;;-2.61;67.37;99988.13;2226098;80;20951;-82
2021/12/22 14:24:48;;;;;;;58.67;26.13;;;;;;;-2.69;67.66;99980.22;2227057;80;21033;-82
2021/12/22 14:27:49;;;;;;;52.60;25.07;;;;;;;-2.76;67.98;99989.05;2228426;80;21335;-83